sensor_id;sensor_type;location;lat;lon;timestamp;temperature;humidity
8067;DHT22;4076;48.076;9.118;2023-04-25T00:00:51;6.00;99.90
8067;DHT22;4076;48.076;9.118;2023-04-25T00:03:17;6.10;99.90
8067;DHT22;4076;48.076;9.118;2023-04-25T00:05:43;6.20;99.90
8067;DHT22;4076;48.076;9.118;2023-04-25T00:08:10;6.30;99.90
8067;DHT22;4076;48.076;9.118;2023-04-25T00:10:36;6.20;99.90
8067;DHT22;4076;48.076;9.118;2023-04-25T00:13:02;6.20;99.90
8067;DHT22;4076;48.076;9.118;2023-04-25T00:15:28;6.30;99.90
8067;DHT22;4076;48.076;9.118;2023-04-25T00:17:56;6.30;99.90
8067;DHT22;4076;48.076;9.118;2023-04-25T00:20:21;6.30;99.90
8067;DHT22;4076;48.076;9.118;2023-04-25T00:22:49;6.20;99.90
8067;DHT22;4076;48.076;9.118;2023-04-25T00:25:14;6.20;99.90
8067;DHT22;4076;48.076;9.118;2023-04-25T00:27:40;6.20;99.90
8067;DHT22;4076;48.076;9.118;2023-04-25T00:30:07;6.30;99.90
8067;DHT22;4076;48.076;9.118;2023-04-25T00:32:33;6.30;99.90
8067;DHT22;4076;48.076;9.118;2023-04-25T00:34:58;6.30;99.90
8067;DHT22;4076;48.076;9.118;2023-04-25T00:37:24;6.30;99.90
8067;DHT22;4076;48.076;9.118;2023-04-25T00:39:50;6.30;99.90
8067;DHT22;4076;48.076;9.118;2023-04-25T00:42:16;6.20;99.90
8067;DHT22;4076;48.076;9.118;2023-04-25T00:44:43;6.20;99.90
8067;DHT22;4076;48.076;9.118;2023-04-25T00:47:08;6.10;99.90
8067;DHT22;4076;48.076;9.118;2023-04-25T00:49:36;6.10;99.90
8067;DHT22;4076;48.076;9.118;2023-04-25T00:52:01;6.00;99.90
8067;DHT22;4076;48.076;9.118;2023-04-25T00:54:27;6.10;99.90
8067;DHT22;4076;48.076;9.118;2023-04-25T00:56:52;6.00;99.90
8067;DHT22;4076;48.076;9.118;2023-04-25T00:59:19;6.00;99.90
8067;DHT22;4076;48.076;9.118;2023-04-25T01:01:45;6.00;99.90
8067;DHT22;4076;48.076;9.118;2023-04-25T01:04:11;6.10;99.90
8067;DHT22;4076;48.076;9.118;2023-04-25T01:06:37;6.00;99.90
8067;DHT22;4076;48.076;9.118;2023-04-25T01:09:04;6.00;99.90
8067;DHT22;4076;48.076;9.118;2023-04-25T01:11:30;6.00;99.90
8067;DHT22;4076;48.076;9.118;2023-04-25T01:13:56;5.90;99.90
8067;DHT22;4076;48.076;9.118;2023-04-25T01:16:22;5.90;99.90
8067;DHT22;4076;48.076;9.118;2023-04-25T01:18:49;5.90;99.90
8067;DHT22;4076;48.076;9.118;2023-04-25T01:21:17;5.80;99.90
8067;DHT22;4076;48.076;9.118;2023-04-25T01:23:42;5.80;99.90
8067;DHT22;4076;48.076;9.118;2023-04-25T01:26:09;5.90;99.90
8067;DHT22;4076;48.076;9.118;2023-04-25T01:28:35;5.90;99.90
8067;DHT22;4076;48.076;9.118;2023-04-25T01:31:01;5.90;99.90
8067;DHT22;4076;48.076;9.118;2023-04-25T01:33:27;5.90;99.90
8067;DHT22;4076;48.076;9.118;2023-04-25T01:35:53;5.90;99.90
8067;DHT22;4076;48.076;9.118;2023-04-25T01:38:18;5.90;99.90
8067;DHT22;4076;48.076;9.118;2023-04-25T01:40:45;6.00;99.90
8067;DHT22;4076;48.076;9.118;2023-04-25T01:43:12;6.00;99.90
8067;DHT22;4076;48.076;9.118;2023-04-25T01:45:40;6.10;99.90
8067;DHT22;4076;48.076;9.118;2023-04-25T01:48:07;6.10;99.90
8067;DHT22;4076;48.076;9.118;2023-04-25T01:50:33;6.10;99.90
8067;DHT22;4076;48.076;9.118;2023-04-25T01:52:58;6.20;99.90
8067;DHT22;4076;48.076;9.118;2023-04-25T01:55:24;6.20;99.90
8067;DHT22;4076;48.076;9.118;2023-04-25T01:57:49;6.20;99.90
8067;DHT22;4076;48.076;9.118;2023-04-25T02:00:15;6.20;99.90
8067;DHT22;4076;48.076;9.118;2023-04-25T02:02:41;6.20;99.90
8067;DHT22;4076;48.076;9.118;2023-04-25T02:05:07;6.30;99.90
8067;DHT22;4076;48.076;9.118;2023-04-25T02:07:32;6.20;99.90
8067;DHT22;4076;48.076;9.118;2023-04-25T02:09:58;6.20;99.90
8067;DHT22;4076;48.076;9.118;2023-04-25T02:12:24;6.20;99.90
8067;DHT22;4076;48.076;9.118;2023-04-25T02:14:51;6.30;99.90
8067;DHT22;4076;48.076;9.118;2023-04-25T02:17:17;6.30;99.90
8067;DHT22;4076;48.076;9.118;2023-04-25T02:19:43;6.30;99.90
8067;DHT22;4076;48.076;9.118;2023-04-25T02:22:09;6.30;99.90
8067;DHT22;4076;48.076;9.118;2023-04-25T02:24:36;6.30;99.90
8067;DHT22;4076;48.076;9.118;2023-04-25T02:27:01;6.30;99.90
8067;DHT22;4076;48.076;9.118;2023-04-25T02:29:27;6.30;99.90
8067;DHT22;4076;48.076;9.118;2023-04-25T02:31:52;6.30;99.90
8067;DHT22;4076;48.076;9.118;2023-04-25T02:34:18;6.30;99.90
8067;DHT22;4076;48.076;9.118;2023-04-25T02:36:43;6.20;99.90
8067;DHT22;4076;48.076;9.118;2023-04-25T02:39:09;6.20;99.90
8067;DHT22;4076;48.076;9.118;2023-04-25T02:41:35;6.30;99.90
8067;DHT22;4076;48.076;9.118;2023-04-25T02:44:01;6.20;99.90
8067;DHT22;4076;48.076;9.118;2023-04-25T02:46:26;6.20;99.90
8067;DHT22;4076;48.076;9.118;2023-04-25T02:48:52;6.10;99.90
8067;DHT22;4076;48.076;9.118;2023-04-25T02:51:18;6.00;99.90
8067;DHT22;4076;48.076;9.118;2023-04-25T02:53:44;6.00;99.90
8067;DHT22;4076;48.076;9.118;2023-04-25T02:56:09;5.90;99.90
8067;DHT22;4076;48.076;9.118;2023-04-25T02:58:35;5.90;99.90
8067;DHT22;4076;48.076;9.118;2023-04-25T03:01:01;5.90;99.90
8067;DHT22;4076;48.076;9.118;2023-04-25T03:03:26;5.80;99.90
8067;DHT22;4076;48.076;9.118;2023-04-25T03:05:52;5.80;99.90
8067;DHT22;4076;48.076;9.118;2023-04-25T03:08:18;5.80;99.90
8067;DHT22;4076;48.076;9.118;2023-04-25T03:10:44;5.80;99.90
8067;DHT22;4076;48.076;9.118;2023-04-25T03:13:10;5.80;99.90
8067;DHT22;4076;48.076;9.118;2023-04-25T03:15:37;5.70;99.90
8067;DHT22;4076;48.076;9.118;2023-04-25T03:18:03;5.60;99.90
8067;DHT22;4076;48.076;9.118;2023-04-25T03:20:28;5.50;99.90
8067;DHT22;4076;48.076;9.118;2023-04-25T03:22:54;5.40;99.90
8067;DHT22;4076;48.076;9.118;2023-04-25T03:25:20;5.30;99.90
8067;DHT22;4076;48.076;9.118;2023-04-25T03:27:45;5.30;99.90
8067;DHT22;4076;48.076;9.118;2023-04-25T03:30:11;5.30;99.90
8067;DHT22;4076;48.076;9.118;2023-04-25T03:32:37;5.30;99.90
8067;DHT22;4076;48.076;9.118;2023-04-25T03:35:02;5.30;99.90
8067;DHT22;4076;48.076;9.118;2023-04-25T03:37:28;5.40;99.90
8067;DHT22;4076;48.076;9.118;2023-04-25T03:39:54;5.40;99.90
8067;DHT22;4076;48.076;9.118;2023-04-25T03:42:20;5.40;99.90
8067;DHT22;4076;48.076;9.118;2023-04-25T03:44:48;5.40;99.90
8067;DHT22;4076;48.076;9.118;2023-04-25T03:47:14;5.50;99.90
8067;DHT22;4076;48.076;9.118;2023-04-25T03:49:39;5.40;99.90
8067;DHT22;4076;48.076;9.118;2023-04-25T03:52:05;5.30;99.90
8067;DHT22;4076;48.076;9.118;2023-04-25T03:54:31;5.30;99.90
8067;DHT22;4076;48.076;9.118;2023-04-25T03:56:56;5.20;99.90
8067;DHT22;4076;48.076;9.118;2023-04-25T03:59:22;5.20;99.90
8067;DHT22;4076;48.076;9.118;2023-04-25T04:01:47;5.10;99.90
8067;DHT22;4076;48.076;9.118;2023-04-25T04:04:13;5.10;99.90
8067;DHT22;4076;48.076;9.118;2023-04-25T04:06:38;5.00;99.90
8067;DHT22;4076;48.076;9.118;2023-04-25T04:09:04;5.00;99.90
8067;DHT22;4076;48.076;9.118;2023-04-25T04:11:31;5.00;99.90
8067;DHT22;4076;48.076;9.118;2023-04-25T04:13:57;4.90;99.90
8067;DHT22;4076;48.076;9.118;2023-04-25T04:16:23;4.90;99.90
8067;DHT22;4076;48.076;9.118;2023-04-25T04:18:48;4.80;99.90
8067;DHT22;4076;48.076;9.118;2023-04-25T04:21:14;4.80;99.90
8067;DHT22;4076;48.076;9.118;2023-04-25T04:23:40;4.90;99.90
8067;DHT22;4076;48.076;9.118;2023-04-25T04:26:06;4.70;99.90
8067;DHT22;4076;48.076;9.118;2023-04-25T04:28:33;4.50;99.90
8067;DHT22;4076;48.076;9.118;2023-04-25T04:31:01;4.40;99.90
8067;DHT22;4076;48.076;9.118;2023-04-25T04:33:28;4.30;99.90
8067;DHT22;4076;48.076;9.118;2023-04-25T04:35:53;4.30;99.90
8067;DHT22;4076;48.076;9.118;2023-04-25T04:38:20;4.30;99.90
8067;DHT22;4076;48.076;9.118;2023-04-25T04:40:47;4.30;99.90
8067;DHT22;4076;48.076;9.118;2023-04-25T04:43:13;4.40;99.90
8067;DHT22;4076;48.076;9.118;2023-04-25T04:45:40;4.60;99.90
8067;DHT22;4076;48.076;9.118;2023-04-25T04:48:06;4.70;99.90
8067;DHT22;4076;48.076;9.118;2023-04-25T04:50:32;4.90;99.90
8067;DHT22;4076;48.076;9.118;2023-04-25T04:53:01;5.00;99.90
8067;DHT22;4076;48.076;9.118;2023-04-25T04:55:27;5.10;99.90
8067;DHT22;4076;48.076;9.118;2023-04-25T04:57:52;5.20;99.90
8067;DHT22;4076;48.076;9.118;2023-04-25T05:00:18;5.20;99.90
8067;DHT22;4076;48.076;9.118;2023-04-25T05:02:44;5.30;99.90
8067;DHT22;4076;48.076;9.118;2023-04-25T05:05:09;5.40;99.90
8067;DHT22;4076;48.076;9.118;2023-04-25T05:07:35;5.50;99.90
8067;DHT22;4076;48.076;9.118;2023-04-25T05:10:01;5.70;99.90
8067;DHT22;4076;48.076;9.118;2023-04-25T05:12:27;5.90;99.90
8067;DHT22;4076;48.076;9.118;2023-04-25T05:14:53;6.10;99.90
8067;DHT22;4076;48.076;9.118;2023-04-25T05:17:19;6.10;99.90
8067;DHT22;4076;48.076;9.118;2023-04-25T05:19:44;6.20;99.90
8067;DHT22;4076;48.076;9.118;2023-04-25T05:22:10;6.50;99.90
8067;DHT22;4076;48.076;9.118;2023-04-25T05:24:35;6.80;99.90
8067;DHT22;4076;48.076;9.118;2023-04-25T05:27:01;6.90;99.90
8067;DHT22;4076;48.076;9.118;2023-04-25T05:29:27;6.80;99.90
8067;DHT22;4076;48.076;9.118;2023-04-25T05:31:53;6.80;99.90
8067;DHT22;4076;48.076;9.118;2023-04-25T05:34:19;6.70;99.90
8067;DHT22;4076;48.076;9.118;2023-04-25T05:36:44;6.70;99.90
8067;DHT22;4076;48.076;9.118;2023-04-25T05:39:14;6.70;99.90
8067;DHT22;4076;48.076;9.118;2023-04-25T05:41:40;6.70;99.90
8067;DHT22;4076;48.076;9.118;2023-04-25T05:44:05;6.70;99.90
8067;DHT22;4076;48.076;9.118;2023-04-25T05:46:31;6.80;99.90
8067;DHT22;4076;48.076;9.118;2023-04-25T05:48:57;6.90;99.90
8067;DHT22;4076;48.076;9.118;2023-04-25T05:51:22;7.10;99.90
8067;DHT22;4076;48.076;9.118;2023-04-25T05:53:48;7.20;99.90
8067;DHT22;4076;48.076;9.118;2023-04-25T05:56:17;7.30;99.90
8067;DHT22;4076;48.076;9.118;2023-04-25T05:58:42;7.40;99.90
8067;DHT22;4076;48.076;9.118;2023-04-25T06:01:08;7.60;99.90
8067;DHT22;4076;48.076;9.118;2023-04-25T06:03:34;7.70;99.90
8067;DHT22;4076;48.076;9.118;2023-04-25T06:06:00;7.80;99.90
8067;DHT22;4076;48.076;9.118;2023-04-25T06:08:26;8.00;99.90
8067;DHT22;4076;48.076;9.118;2023-04-25T06:10:52;8.00;99.90
8067;DHT22;4076;48.076;9.118;2023-04-25T06:13:17;8.10;99.90
8067;DHT22;4076;48.076;9.118;2023-04-25T06:15:43;8.20;99.90
8067;DHT22;4076;48.076;9.118;2023-04-25T06:18:09;8.20;99.90
8067;DHT22;4076;48.076;9.118;2023-04-25T06:20:34;8.30;99.90
8067;DHT22;4076;48.076;9.118;2023-04-25T06:23:00;8.30;99.90
8067;DHT22;4076;48.076;9.118;2023-04-25T06:25:26;8.30;99.90
8067;DHT22;4076;48.076;9.118;2023-04-25T06:27:51;8.40;99.90
8067;DHT22;4076;48.076;9.118;2023-04-25T06:30:17;8.40;99.90
8067;DHT22;4076;48.076;9.118;2023-04-25T06:32:47;8.50;99.90
8067;DHT22;4076;48.076;9.118;2023-04-25T06:35:13;8.50;99.90
8067;DHT22;4076;48.076;9.118;2023-04-25T06:37:39;8.40;99.90
8067;DHT22;4076;48.076;9.118;2023-04-25T06:40:05;8.40;99.90
8067;DHT22;4076;48.076;9.118;2023-04-25T06:42:31;8.30;99.90
8067;DHT22;4076;48.076;9.118;2023-04-25T06:44:56;8.40;99.90
8067;DHT22;4076;48.076;9.118;2023-04-25T06:47:22;8.40;99.90
8067;DHT22;4076;48.076;9.118;2023-04-25T06:49:47;8.40;99.90
8067;DHT22;4076;48.076;9.118;2023-04-25T06:52:13;8.50;99.90
8067;DHT22;4076;48.076;9.118;2023-04-25T06:54:39;8.60;99.90
8067;DHT22;4076;48.076;9.118;2023-04-25T06:57:04;8.70;99.90
8067;DHT22;4076;48.076;9.118;2023-04-25T06:59:30;8.80;99.90
8067;DHT22;4076;48.076;9.118;2023-04-25T07:01:55;8.80;99.90
8067;DHT22;4076;48.076;9.118;2023-04-25T07:04:21;8.80;99.90
8067;DHT22;4076;48.076;9.118;2023-04-25T07:06:47;8.80;99.90
8067;DHT22;4076;48.076;9.118;2023-04-25T07:09:13;8.80;99.90
8067;DHT22;4076;48.076;9.118;2023-04-25T07:11:39;8.70;99.90
8067;DHT22;4076;48.076;9.118;2023-04-25T07:14:04;8.70;99.90
8067;DHT22;4076;48.076;9.118;2023-04-25T07:16:30;8.60;99.90
8067;DHT22;4076;48.076;9.118;2023-04-25T07:18:55;8.60;99.90
8067;DHT22;4076;48.076;9.118;2023-04-25T07:21:21;8.50;99.90
8067;DHT22;4076;48.076;9.118;2023-04-25T07:23:47;8.40;99.90
8067;DHT22;4076;48.076;9.118;2023-04-25T07:26:12;8.30;99.90
8067;DHT22;4076;48.076;9.118;2023-04-25T07:28:38;8.30;99.90
8067;DHT22;4076;48.076;9.118;2023-04-25T07:31:04;8.30;99.90
8067;DHT22;4076;48.076;9.118;2023-04-25T07:33:30;8.30;99.90
8067;DHT22;4076;48.076;9.118;2023-04-25T07:35:56;8.30;99.90
8067;DHT22;4076;48.076;9.118;2023-04-25T07:38:22;8.30;99.90
8067;DHT22;4076;48.076;9.118;2023-04-25T07:40:48;8.30;99.90
8067;DHT22;4076;48.076;9.118;2023-04-25T07:43:14;8.30;99.90
8067;DHT22;4076;48.076;9.118;2023-04-25T07:45:42;8.30;99.90
8067;DHT22;4076;48.076;9.118;2023-04-25T07:48:08;8.30;99.90
8067;DHT22;4076;48.076;9.118;2023-04-25T07:50:34;8.40;99.90
8067;DHT22;4076;48.076;9.118;2023-04-25T07:52:59;8.40;99.90
8067;DHT22;4076;48.076;9.118;2023-04-25T07:55:25;8.30;99.90
8067;DHT22;4076;48.076;9.118;2023-04-25T07:57:51;8.20;99.90
8067;DHT22;4076;48.076;9.118;2023-04-25T08:00:17;8.20;99.90
8067;DHT22;4076;48.076;9.118;2023-04-25T08:02:43;8.10;99.90
8067;DHT22;4076;48.076;9.118;2023-04-25T08:05:08;8.10;99.90
8067;DHT22;4076;48.076;9.118;2023-04-25T08:07:37;8.10;99.90
8067;DHT22;4076;48.076;9.118;2023-04-25T08:10:04;8.00;99.90
8067;DHT22;4076;48.076;9.118;2023-04-25T08:12:30;8.00;99.90
8067;DHT22;4076;48.076;9.118;2023-04-25T08:14:56;8.00;99.90
8067;DHT22;4076;48.076;9.118;2023-04-25T08:17:21;7.90;99.90
8067;DHT22;4076;48.076;9.118;2023-04-25T08:19:47;7.90;99.90
8067;DHT22;4076;48.076;9.118;2023-04-25T08:22:13;7.80;99.90
8067;DHT22;4076;48.076;9.118;2023-04-25T08:24:38;7.60;99.90
8067;DHT22;4076;48.076;9.118;2023-04-25T08:27:04;7.40;99.90
8067;DHT22;4076;48.076;9.118;2023-04-25T08:29:29;7.30;99.90
8067;DHT22;4076;48.076;9.118;2023-04-25T08:31:55;7.10;99.90
8067;DHT22;4076;48.076;9.118;2023-04-25T08:34:20;7.00;99.90
8067;DHT22;4076;48.076;9.118;2023-04-25T08:36:46;7.00;99.90
8067;DHT22;4076;48.076;9.118;2023-04-25T08:39:12;6.90;99.90
8067;DHT22;4076;48.076;9.118;2023-04-25T08:41:38;6.80;99.90
8067;DHT22;4076;48.076;9.118;2023-04-25T08:44:10;6.80;99.90
8067;DHT22;4076;48.076;9.118;2023-04-25T08:46:38;6.80;99.90
8067;DHT22;4076;48.076;9.118;2023-04-25T08:49:04;6.80;99.90
8067;DHT22;4076;48.076;9.118;2023-04-25T08:51:32;6.80;99.90
8067;DHT22;4076;48.076;9.118;2023-04-25T08:54:11;6.80;99.90
8067;DHT22;4076;48.076;9.118;2023-04-25T08:56:43;6.90;99.90
8067;DHT22;4076;48.076;9.118;2023-04-25T08:59:11;6.90;99.90
8067;DHT22;4076;48.076;9.118;2023-04-25T09:01:36;7.00;99.90
8067;DHT22;4076;48.076;9.118;2023-04-25T09:04:02;7.00;99.90
8067;DHT22;4076;48.076;9.118;2023-04-25T09:06:32;7.20;99.90
8067;DHT22;4076;48.076;9.118;2023-04-25T09:09:03;7.20;99.90
8067;DHT22;4076;48.076;9.118;2023-04-25T09:11:30;7.30;99.90
8067;DHT22;4076;48.076;9.118;2023-04-25T09:14:16;7.40;99.90
8067;DHT22;4076;48.076;9.118;2023-04-25T09:16:58;7.60;99.90
8067;DHT22;4076;48.076;9.118;2023-04-25T09:19:34;7.60;99.90
8067;DHT22;4076;48.076;9.118;2023-04-25T09:22:02;7.70;99.90
8067;DHT22;4076;48.076;9.118;2023-04-25T09:24:39;7.70;99.90
8067;DHT22;4076;48.076;9.118;2023-04-25T09:27:07;7.70;99.90
8067;DHT22;4076;48.076;9.118;2023-04-25T09:29:35;7.60;99.90
8067;DHT22;4076;48.076;9.118;2023-04-25T09:34:49;7.70;99.90
8067;DHT22;4076;48.076;9.118;2023-04-25T09:37:22;7.70;99.90
8067;DHT22;4076;48.076;9.118;2023-04-25T09:39:50;7.80;99.90
8067;DHT22;4076;48.076;9.118;2023-04-25T09:42:17;7.70;99.90
8067;DHT22;4076;48.076;9.118;2023-04-25T09:44:46;7.70;99.90
8067;DHT22;4076;48.076;9.118;2023-04-25T09:47:13;7.70;99.90
8067;DHT22;4076;48.076;9.118;2023-04-25T09:49:41;7.80;99.90
8067;DHT22;4076;48.076;9.118;2023-04-25T09:52:08;8.00;99.90
8067;DHT22;4076;48.076;9.118;2023-04-25T09:54:34;8.20;99.90
8067;DHT22;4076;48.076;9.118;2023-04-25T09:57:12;8.30;99.90
8067;DHT22;4076;48.076;9.118;2023-04-25T09:59:42;8.30;99.90
8067;DHT22;4076;48.076;9.118;2023-04-25T10:02:08;8.30;99.90
8067;DHT22;4076;48.076;9.118;2023-04-25T10:04:35;8.30;99.90
8067;DHT22;4076;48.076;9.118;2023-04-25T10:07:05;8.40;99.90
8067;DHT22;4076;48.076;9.118;2023-04-25T10:09:33;8.50;99.90
8067;DHT22;4076;48.076;9.118;2023-04-25T10:12:02;8.60;99.90
8067;DHT22;4076;48.076;9.118;2023-04-25T10:14:31;8.70;99.90
8067;DHT22;4076;48.076;9.118;2023-04-25T10:16:58;8.90;99.90
8067;DHT22;4076;48.076;9.118;2023-04-25T10:19:24;9.00;99.90
8067;DHT22;4076;48.076;9.118;2023-04-25T10:22:02;9.20;99.90
8067;DHT22;4076;48.076;9.118;2023-04-25T10:24:28;9.30;99.90
8067;DHT22;4076;48.076;9.118;2023-04-25T10:26:54;9.60;99.90
8067;DHT22;4076;48.076;9.118;2023-04-25T10:29:22;10.00;99.90
8067;DHT22;4076;48.076;9.118;2023-04-25T10:31:49;10.40;99.90
8067;DHT22;4076;48.076;9.118;2023-04-25T10:34:16;10.80;99.90
8067;DHT22;4076;48.076;9.118;2023-04-25T10:36:42;11.20;99.90
8067;DHT22;4076;48.076;9.118;2023-04-25T10:39:08;11.70;99.90
8067;DHT22;4076;48.076;9.118;2023-04-25T10:41:47;12.20;99.90
8067;DHT22;4076;48.076;9.118;2023-04-25T10:44:15;12.80;99.90
8067;DHT22;4076;48.076;9.118;2023-04-25T10:46:41;13.30;99.90
8067;DHT22;4076;48.076;9.118;2023-04-25T10:49:09;13.70;99.90
8067;DHT22;4076;48.076;9.118;2023-04-25T10:51:36;13.70;99.90
8067;DHT22;4076;48.076;9.118;2023-04-25T10:54:07;13.90;99.90
8067;DHT22;4076;48.076;9.118;2023-04-25T10:56:36;13.60;98.00
8067;DHT22;4076;48.076;9.118;2023-04-25T11:01:46;12.70;94.00
8067;DHT22;4076;48.076;9.118;2023-04-25T11:04:31;12.30;94.80
8067;DHT22;4076;48.076;9.118;2023-04-25T11:09:35;12.00;96.20
8067;DHT22;4076;48.076;9.118;2023-04-25T11:12:01;11.80;95.70
8067;DHT22;4076;48.076;9.118;2023-04-25T11:14:27;11.70;96.10
8067;DHT22;4076;48.076;9.118;2023-04-25T11:16:53;11.40;95.30
8067;DHT22;4076;48.076;9.118;2023-04-25T11:19:21;11.30;96.10
8067;DHT22;4076;48.076;9.118;2023-04-25T11:21:47;11.20;96.10
8067;DHT22;4076;48.076;9.118;2023-04-25T11:24:12;11.10;96.30
8067;DHT22;4076;48.076;9.118;2023-04-25T11:26:40;11.00;95.80
8067;DHT22;4076;48.076;9.118;2023-04-25T11:29:06;11.10;95.10
8067;DHT22;4076;48.076;9.118;2023-04-25T11:31:32;11.30;97.20
8067;DHT22;4076;48.076;9.118;2023-04-25T11:33:57;11.60;98.40
8067;DHT22;4076;48.076;9.118;2023-04-25T11:36:26;11.90;97.60
8067;DHT22;4076;48.076;9.118;2023-04-25T11:38:52;12.10;96.00
8067;DHT22;4076;48.076;9.118;2023-04-25T11:41:21;12.30;95.60
8067;DHT22;4076;48.076;9.118;2023-04-25T11:43:47;12.40;94.60
8067;DHT22;4076;48.076;9.118;2023-04-25T11:46:14;12.40;94.30
8067;DHT22;4076;48.076;9.118;2023-04-25T11:48:41;12.40;93.20
8067;DHT22;4076;48.076;9.118;2023-04-25T11:51:07;12.40;93.20
8067;DHT22;4076;48.076;9.118;2023-04-25T11:53:33;12.40;92.50
8067;DHT22;4076;48.076;9.118;2023-04-25T11:55:59;12.40;92.70
8067;DHT22;4076;48.076;9.118;2023-04-25T11:58:25;12.40;91.10
8067;DHT22;4076;48.076;9.118;2023-04-25T12:00:51;12.30;89.20
8067;DHT22;4076;48.076;9.118;2023-04-25T12:03:18;12.10;91.00
8067;DHT22;4076;48.076;9.118;2023-04-25T12:05:45;12.30;92.00
8067;DHT22;4076;48.076;9.118;2023-04-25T12:08:14;12.70;88.60
8067;DHT22;4076;48.076;9.118;2023-04-25T12:10:42;12.70;87.50
8067;DHT22;4076;48.076;9.118;2023-04-25T12:13:25;12.70;88.90
8067;DHT22;4076;48.076;9.118;2023-04-25T12:15:53;12.60;89.70
8067;DHT22;4076;48.076;9.118;2023-04-25T12:18:20;12.60;90.00
8067;DHT22;4076;48.076;9.118;2023-04-25T12:20:46;12.80;89.50
8067;DHT22;4076;48.076;9.118;2023-04-25T12:23:12;12.80;87.40
8067;DHT22;4076;48.076;9.118;2023-04-25T12:25:38;12.80;84.40
8067;DHT22;4076;48.076;9.118;2023-04-25T12:28:19;12.70;85.10
8067;DHT22;4076;48.076;9.118;2023-04-25T12:30:58;12.80;84.70
8067;DHT22;4076;48.076;9.118;2023-04-25T12:33:25;12.80;84.50
8067;DHT22;4076;48.076;9.118;2023-04-25T12:35:55;12.90;84.70
8067;DHT22;4076;48.076;9.118;2023-04-25T12:38:28;13.10;84.70
8067;DHT22;4076;48.076;9.118;2023-04-25T12:40:56;13.30;83.40
8067;DHT22;4076;48.076;9.118;2023-04-25T12:43:21;13.40;83.70
8067;DHT22;4076;48.076;9.118;2023-04-25T12:45:48;13.70;85.10
8067;DHT22;4076;48.076;9.118;2023-04-25T12:48:15;14.00;78.80
8067;DHT22;4076;48.076;9.118;2023-04-25T12:50:40;13.90;79.20
8067;DHT22;4076;48.076;9.118;2023-04-25T12:53:06;13.90;80.20
8067;DHT22;4076;48.076;9.118;2023-04-25T12:55:32;14.00;80.90
8067;DHT22;4076;48.076;9.118;2023-04-25T12:57:57;13.90;77.50
8067;DHT22;4076;48.076;9.118;2023-04-25T13:00:23;13.90;76.50
8067;DHT22;4076;48.076;9.118;2023-04-25T13:02:49;13.80;73.30
8067;DHT22;4076;48.076;9.118;2023-04-25T13:05:15;13.40;70.40
8067;DHT22;4076;48.076;9.118;2023-04-25T13:07:40;13.00;70.30
8067;DHT22;4076;48.076;9.118;2023-04-25T13:10:07;12.60;69.70
8067;DHT22;4076;48.076;9.118;2023-04-25T13:12:32;12.30;70.80
8067;DHT22;4076;48.076;9.118;2023-04-25T13:14:58;12.20;72.40
8067;DHT22;4076;48.076;9.118;2023-04-25T13:17:24;12.10;73.20
8067;DHT22;4076;48.076;9.118;2023-04-25T13:19:50;12.20;73.50
8067;DHT22;4076;48.076;9.118;2023-04-25T13:22:15;12.40;74.60
8067;DHT22;4076;48.076;9.118;2023-04-25T13:24:42;12.60;74.40
8067;DHT22;4076;48.076;9.118;2023-04-25T13:27:08;13.00;73.90
8067;DHT22;4076;48.076;9.118;2023-04-25T13:29:34;13.30;74.60
8067;DHT22;4076;48.076;9.118;2023-04-25T13:32:01;13.60;72.70
8067;DHT22;4076;48.076;9.118;2023-04-25T13:34:28;13.70;70.90
8067;DHT22;4076;48.076;9.118;2023-04-25T13:36:54;13.50;69.00
8067;DHT22;4076;48.076;9.118;2023-04-25T13:39:20;13.50;68.10
8067;DHT22;4076;48.076;9.118;2023-04-25T13:41:46;13.60;70.10
8067;DHT22;4076;48.076;9.118;2023-04-25T13:44:11;13.60;69.50
8067;DHT22;4076;48.076;9.118;2023-04-25T13:46:37;13.60;68.70
8067;DHT22;4076;48.076;9.118;2023-04-25T13:49:03;13.50;66.00
8067;DHT22;4076;48.076;9.118;2023-04-25T13:51:29;13.30;65.50
8067;DHT22;4076;48.076;9.118;2023-04-25T13:53:56;12.90;65.70
8067;DHT22;4076;48.076;9.118;2023-04-25T13:56:21;12.60;67.00
8067;DHT22;4076;48.076;9.118;2023-04-25T13:58:49;12.60;67.40
8067;DHT22;4076;48.076;9.118;2023-04-25T14:01:15;12.60;67.50
8067;DHT22;4076;48.076;9.118;2023-04-25T14:03:41;12.60;68.20
8067;DHT22;4076;48.076;9.118;2023-04-25T14:06:06;12.80;68.10
8067;DHT22;4076;48.076;9.118;2023-04-25T14:08:33;13.10;68.40
8067;DHT22;4076;48.076;9.118;2023-04-25T14:10:59;13.20;65.30
8067;DHT22;4076;48.076;9.118;2023-04-25T14:13:25;13.10;64.40
8067;DHT22;4076;48.076;9.118;2023-04-25T14:15:50;12.90;63.90
8067;DHT22;4076;48.076;9.118;2023-04-25T14:18:17;12.80;64.50
8067;DHT22;4076;48.076;9.118;2023-04-25T14:20:42;12.70;62.40
8067;DHT22;4076;48.076;9.118;2023-04-25T14:23:08;12.50;62.80
8067;DHT22;4076;48.076;9.118;2023-04-25T14:25:34;12.40;63.40
8067;DHT22;4076;48.076;9.118;2023-04-25T14:28:00;12.40;63.80
8067;DHT22;4076;48.076;9.118;2023-04-25T14:30:26;12.40;64.00
8067;DHT22;4076;48.076;9.118;2023-04-25T14:32:52;12.40;64.10
8067;DHT22;4076;48.076;9.118;2023-04-25T14:35:17;12.50;63.80
8067;DHT22;4076;48.076;9.118;2023-04-25T14:37:43;12.50;64.50
8067;DHT22;4076;48.076;9.118;2023-04-25T14:40:09;12.70;64.20
8067;DHT22;4076;48.076;9.118;2023-04-25T14:42:36;12.70;63.10
8067;DHT22;4076;48.076;9.118;2023-04-25T14:45:03;12.80;63.80
8067;DHT22;4076;48.076;9.118;2023-04-25T14:47:29;13.00;65.20
8067;DHT22;4076;48.076;9.118;2023-04-25T14:49:55;13.10;62.80
8067;DHT22;4076;48.076;9.118;2023-04-25T14:52:21;13.10;61.70
8067;DHT22;4076;48.076;9.118;2023-04-25T14:54:46;13.10;60.60
8067;DHT22;4076;48.076;9.118;2023-04-25T14:57:12;13.10;61.30
8067;DHT22;4076;48.076;9.118;2023-04-25T14:59:38;13.00;62.30
8067;DHT22;4076;48.076;9.118;2023-04-25T15:02:04;12.70;67.20
8067;DHT22;4076;48.076;9.118;2023-04-25T15:04:30;12.50;70.20
8067;DHT22;4076;48.076;9.118;2023-04-25T15:06:55;12.40;70.30
8067;DHT22;4076;48.076;9.118;2023-04-25T15:09:21;12.40;72.10
8067;DHT22;4076;48.076;9.118;2023-04-25T15:11:48;12.30;72.10
8067;DHT22;4076;48.076;9.118;2023-04-25T15:14:14;12.10;71.50
8067;DHT22;4076;48.076;9.118;2023-04-25T15:16:39;12.00;73.50
8067;DHT22;4076;48.076;9.118;2023-04-25T15:19:05;12.00;73.80
8067;DHT22;4076;48.076;9.118;2023-04-25T15:21:31;11.90;73.90
8067;DHT22;4076;48.076;9.118;2023-04-25T15:23:57;12.00;73.50
8067;DHT22;4076;48.076;9.118;2023-04-25T15:26:22;11.90;73.20
8067;DHT22;4076;48.076;9.118;2023-04-25T15:28:48;11.80;72.10
8067;DHT22;4076;48.076;9.118;2023-04-25T15:31:15;11.80;72.50
8067;DHT22;4076;48.076;9.118;2023-04-25T15:33:41;11.60;70.20
8067;DHT22;4076;48.076;9.118;2023-04-25T15:36:07;11.40;70.70
8067;DHT22;4076;48.076;9.118;2023-04-25T15:38:33;11.40;72.60
8067;DHT22;4076;48.076;9.118;2023-04-25T15:40:58;11.40;74.10
8067;DHT22;4076;48.076;9.118;2023-04-25T15:43:24;11.50;73.50
8067;DHT22;4076;48.076;9.118;2023-04-25T15:45:49;11.60;73.50
8067;DHT22;4076;48.076;9.118;2023-04-25T15:48:15;11.60;74.30
8067;DHT22;4076;48.076;9.118;2023-04-25T15:50:41;11.60;72.80
8067;DHT22;4076;48.076;9.118;2023-04-25T15:53:06;11.50;73.60
8067;DHT22;4076;48.076;9.118;2023-04-25T15:55:32;11.30;73.30
8067;DHT22;4076;48.076;9.118;2023-04-25T15:57:58;11.20;74.40
8067;DHT22;4076;48.076;9.118;2023-04-25T16:00:24;11.10;78.00
8067;DHT22;4076;48.076;9.118;2023-04-25T16:02:50;11.20;78.40
8067;DHT22;4076;48.076;9.118;2023-04-25T16:05:16;11.20;78.70
8067;DHT22;4076;48.076;9.118;2023-04-25T16:07:44;11.40;78.20
8067;DHT22;4076;48.076;9.118;2023-04-25T16:10:10;11.40;78.40
8067;DHT22;4076;48.076;9.118;2023-04-25T16:12:40;11.40;75.40
8067;DHT22;4076;48.076;9.118;2023-04-25T16:15:06;11.40;76.50